Flight Track Log - Related Links

Times and Time Zones

All times are in EDT time to prevent confusion due to time zone crossing. See the N8253Z flight status page for this flight to view local times or setup timezone preferences in your user account.

Time Position Orientation Groundspeed Altitude Reporting Facility
EDT Latitude Longitude Course Direction KTS MPH feet Rate Location/Type
Fri 03:14:25 PM 42.2790 -71.8900 295° West 114 131 1,200  Level FlightAware ADS-B
Fri 03:14:29 PM 42.2800 -71.8930 294° West 118 136 1,300 1,333 Climbing FlightAware ADS-B
Fri 03:14:34 PM 42.2800 -71.8960 270° West 123 142 1,400 1,286 Climbing FlightAware ADS-B
Fri 03:14:57 PM 42.2770 -71.9130 257° West 119 137 1,900 1,200 Climbing FlightAware ADS-B
Fri 03:15:19 PM 42.2740 -71.9290 256° West 119 137 2,300 1,077 Climbing FlightAware ADS-B
Fri 03:15:36 PM 42.2720 -71.9410 257° West 120 138 2,600 637 Climbing FlightAware ADS-B
Fri 03:16:02 PM 42.2680 -71.9600 254° West 121 139 622 Descending FlightAware ADS-B
Fri 03:16:15 PM 42.2660 -71.9690 253° West 120 138 991 Level FlightAware ADS-B
Fri 03:16:35 PM 42.2640 -71.9850 260° West 123 142 1,020 Level FlightAware ADS-B
Fri 03:17:03 PM 42.2670 -72.0050 281° West 117 135 1,067 Level FlightAware ADS-B
Fri 03:17:15 PM 42.2680 -72.0140 279° West 113 130 1,141 Level FlightAware ADS-B
Fri 03:17:35 PM 42.2710 -72.0270 287° West 112 129 1,176 Level FlightAware ADS-B
Fri 03:18:01 PM 42.2760 -72.0450 291° West 119 137 1,239 Level FlightAware ADS-B
Fri 03:18:21 PM 42.2800 -72.0580 293° West 116 133 1,331 Level FlightAware ADS-B
Fri 03:18:42 PM 42.2840 -72.0730 290° West 121 139 1,413 Level FlightAware ADS-B
Fri 03:19:02 PM 42.2890 -72.0870 296° West 118 136 1,510 Level FlightAware ADS-B
Fri 03:19:24 PM 42.2930 -72.1020 290° West 120 138 1,615 Level FlightAware ADS-B
Fri 03:19:37 PM 42.2960 -72.1100 297° West 112 129 1,750 Level FlightAware ADS-B
Fri 03:20:01 PM 42.3010 -72.1250 294° West 111 128 1,841 Level FlightAware ADS-B
Fri 03:20:21 PM 42.3050 -72.1390 291° West 113 130 2,035 Level FlightAware ADS-B
Fri 03:20:41 PM 42.3070 -72.1520 282° West 115 132 2,232 Level FlightAware ADS-B
Fri 03:21:01 PM 42.3100 -72.1670 285° West 115 132 2,471 Level FlightAware ADS-B
Fri 03:21:25 PM 42.3140 -72.1850 287° West 142 163 2,766 Level FlightAware ADS-B
Fri 03:21:43 PM 42.3190 -72.2000 294° West 151 174 3,231 Level FlightAware ADS-B
Fri 03:22:03 PM 42.3240 -72.2180 291° West 163 188 3,696 Level FlightAware ADS-B
Fri 03:22:23 PM 42.3300 -72.2380 292° West 160 184 4,400 Level FlightAware ADS-B
Fri 03:22:48 PM 42.3370 -72.2600 293° West 163 188 5,435 Level FlightAware ADS-B
Fri 03:23:03 PM 42.3420 -72.2740 296° West 164 189 7,700 Level FlightAware ADS-B
Fri 03:23:31 PM 42.3500 -72.3010 292° West 166 191 10,267 Level FlightAware ADS-B
Fri 03:23:48 PM 42.3543 -72.3174 289° West 166 191 7,700 9,429 Climbing FlightAware ADS-B (KSNC)
Fri 03:24:20 PM 42.3616 -72.3450 290° West 165 190 7,700  Level FlightAware ADS-B (KSNC)
Fri 03:24:58 PM 42.3726 -72.3846 291° West 164 189 7,700  Level FlightAware ADS-B (KSNC)
Fri 03:25:36 PM 42.3830 -72.4230 290° West 164 189  Descending FlightAware ADS-B
Fri 03:25:46 PM 42.3856 -72.4312 293° West 166 191 7,700 17,111 Climbing FlightAware ADS-B (KSNC)
Fri 03:26:03 PM 42.3873 -72.4373 290° West 164 189 7,700  Level FlightAware ADS-B (KSNC)
Fri 03:26:28 PM 42.3969 -72.4731 290° West 166 191 7,700  Level FlightAware ADS-B (KSNC)
Fri 03:26:54 PM 42.4033 -72.4973 290° West 166 191 7,700 -152 Level FlightAware ADS-B (KSNC)
Fri 03:27:36 PM 42.4140 -72.5380 290° West 164 189 -158 Descending FlightAware ADS-B
Fri 03:27:57 PM 42.4210 -72.5590 294° West 172 198 648 Level FlightAware ADS-B
Fri 03:28:15 PM 42.4260 -72.5780 290° West 180 207 673 Level FlightAware ADS-B
Fri 03:28:34 PM 42.4320 -72.5980 292° West 182 209 696 Level FlightAware ADS-B
Fri 03:28:58 PM 42.4390 -72.6240 290° West 181 208 722 Level FlightAware ADS-B
Fri 03:29:20 PM 42.4450 -72.6460 290° West 182 209 758 Level FlightAware ADS-B
Fri 03:29:31 PM 42.4490 -72.6590 293° West 184 212 794 Level FlightAware ADS-B
Fri 03:29:52 PM 42.4550 -72.6820 289° West 183 211 813 Level FlightAware ADS-B
Fri 03:30:13 PM 42.4610 -72.7040 290° West 188 216 853 Level FlightAware ADS-B
Fri 03:30:35 PM 42.4680 -72.7300 290° West 195 224 897 Level FlightAware ADS-B
Fri 03:30:59 PM 42.4750 -72.7560 290° West 188 216 948 Level FlightAware ADS-B
Fri 03:31:19 PM 42.4810 -72.7780 290° West 187 215 1,011 Level FlightAware ADS-B
Fri 03:31:39 PM 42.4870 -72.7990 291° West 181 208 1,070 Level FlightAware ADS-B
Fri 03:31:58 PM 42.4920 -72.8190 289° West 177 204 1,137 Level FlightAware ADS-B
Fri 03:32:20 PM 42.4990 -72.8430 292° West 172 198 1,208 Level FlightAware ADS-B
Fri 03:32:35 PM 42.5020 -72.8570 286° West 171 197 1,302 Level FlightAware ADS-B
Fri 03:32:54 PM 42.5070 -72.8760 290° West 170 196 1,376 Level FlightAware ADS-B
Fri 03:33:18 PM 42.5140 -72.9000 292° West 170 196 1,482 Level FlightAware ADS-B
Fri 03:33:29 PM 42.5170 -72.9120 289° West 170 196 1,641 Level FlightAware ADS-B
Fri 03:33:53 PM 42.5230 -72.9360 289° West 170 196 1,726 Level FlightAware ADS-B
Fri 03:34:08 PM 42.5270 -72.9510 290° West 170 196 1,947 Level FlightAware ADS-B
Fri 03:34:36 PM 42.5340 -72.9790 289° West 169 194 2,116 Level FlightAware ADS-B
Fri 03:34:56 PM 42.5390 -72.9990 289° West 171 197 2,524 Level FlightAware ADS-B
Fri 03:35:15 PM 42.5440 -73.0170 291° West 170 196 2,928 Level FlightAware ADS-B
Fri 03:35:34 PM 42.5500 -73.0370 292° West 171 197 3,453 Level FlightAware ADS-B
Fri 03:35:57 PM 42.5560 -73.0590 290° West 171 197 4,207 Level FlightAware ADS-B
Fri 03:36:31 PM 42.5640 -73.0910 289° West 170 196 5,719 Level FlightAware ADS-B
Fri 03:37:01 PM 42.5714 -73.1281 289° West 172 198 6,100 4,022 Climbing Boston Center
Fri 03:38:02 PM 42.5897 -73.1875 293° West 172 198 6,100  Level Boston Center
Fri 03:39:05 PM 42.6039 -73.2525 287° West 173 199 6,100  Level Boston Center
Fri 03:40:12 PM 42.6222 -73.3119 293° West 173 199 6,100  Level Boston Center
Fri 03:41:12 PM 42.6403 -73.3800 290° West 174 200 6,100  Level Boston Center
Fri 03:42:13 PM 42.6544 -73.4394 288° West 170 196 6,100  Level Boston Center
Fri 03:43:13 PM 42.6725 -73.5019 291° West 167 192 6,100 -31 Level Boston Center
Fri 03:49:47 PM 42.7650 -73.8940 291° West 5,800 -35 Descending FlightAware ADS-B
Fri 03:51:47 PM 42.7860 -74.0140 283° West 165 190 5,800  Level FlightAware ADS-B
Fri 03:52:12 PM 42.7910 -74.0450 282° West 166 191 5,800  Level FlightAware ADS-B
Fri 03:52:32 PM 42.7940 -74.0630 283° West 167 192 5,800  Level FlightAware ADS-B
Fri 03:53:02 PM 42.7990 -74.0950 282° West 167 192 5,800  Level FlightAware ADS-B
Fri 03:53:22 PM 42.8020 -74.1150 282° West 168 193 5,800  Level FlightAware ADS-B
Fri 03:53:38 PM 42.8050 -74.1310 284° West 168 193 5,800  Level FlightAware ADS-B
Fri 03:53:58 PM 42.8090 -74.1540 283° West 168 193 5,800  Level FlightAware ADS-B
Fri 03:54:23 PM 42.8120 -74.1760 281° West 168 193 5,800  Level FlightAware ADS-B
Fri 03:54:53 PM 42.8090 -74.1540 101° East 168 193 5,800  Level FlightAware ADS-B
Fri 03:55:21 PM 42.8130 -74.1780 283° West 168 193 5,800 220 Level FlightAware ADS-B
Fri 03:56:15 PM 42.8311 -74.2972 283° West 170 196 6,100 250 Climbing Boston Center
Fri 03:56:33 PM 42.8350 -74.3172 285° West 169 194 6,100  Level Boston Center
Fri 03:57:03 PM 42.8367 -74.3428 275° West 169 194 6,100  Level Boston Center
Fri 03:58:05 PM 42.8503 -74.4111 285° West 170 196 6,100  Level Boston Center
Fri 03:59:05 PM 42.8594 -74.4767 281° West 169 194 6,100  Level Boston Center
Fri 04:01:05 PM 42.8800 -74.6019 283° West 171 197 6,100  Level Boston Center
Fri 04:02:05 PM 42.8914 -74.6647 284° West 172 198 6,100  Level Boston Center
Fri 04:03:00 PM 42.9006 -74.7217 282° West 172 198 6,100  Level Boston Center
Fri 04:04:00 PM 42.9097 -74.7872 281° West 173 199 6,100  Level Boston Center
Fri 04:05:02 PM 42.9189 -74.8500 281° West 174 200 6,100  Level Boston Center
Fri 04:06:08 PM 42.9319 -74.9214 284° West 173 199 6,100 -148 Level Boston Center
Fri 04:11:56 PM 42.9910 -75.2950 284° West 175 201 -155 Descending FlightAware ADS-B
Fri 04:12:24 PM 42.9960 -75.3260 282° West 175 201 168 Level FlightAware ADS-B
Fri 04:12:43 PM 42.9990 -75.3460 282° West 177 204 173 Level FlightAware ADS-B
Fri 04:13:03 PM 43.0030 -75.3690 283° West 176 203 176 Level FlightAware ADS-B
Fri 04:13:24 PM 43.0060 -75.3910 281° West 175 201 180 Level FlightAware ADS-B
Fri 04:13:46 PM 43.0100 -75.4150 283° West 175 201 185 Level FlightAware ADS-B
Fri 04:14:06 PM 43.0130 -75.4370 281° West 176 203 189 Level FlightAware ADS-B
Fri 04:14:26 PM 43.0160 -75.4590 281° West 176 203 194 Level FlightAware ADS-B
Fri 04:14:50 PM 43.0190 -75.4850 279° West 175 201 199 Level FlightAware ADS-B
Fri 04:15:10 PM 43.0230 -75.5070 284° West 175 201 205 Level FlightAware ADS-B
Fri 04:15:22 PM 43.0250 -75.5200 282° West 175 201 210 Level FlightAware ADS-B
Fri 04:15:44 PM 43.0290 -75.5440 283° West 174 200 213 Level FlightAware ADS-B
Fri 04:16:08 PM 43.0320 -75.5690 279° West 175 201 220 Level FlightAware ADS-B
Fri 04:16:20 PM 43.0340 -75.5810 283° West 175 201 227 Level FlightAware ADS-B
Fri 04:16:44 PM 43.0390 -75.6080 284° West 174 200 231 Level FlightAware ADS-B
Fri 04:17:04 PM 43.0420 -75.6300 281° West 175 201 239 Level FlightAware ADS-B
Fri 04:17:16 PM 43.0440 -75.6430 282° West 175 201 247 Level FlightAware ADS-B
Fri 04:17:40 PM 43.0480 -75.6700 281° West 175 201 251 Level FlightAware ADS-B
Fri 04:18:00 PM 43.0510 -75.6910 281° West 174 200 261 Level FlightAware ADS-B
Fri 04:18:12 PM 43.0530 -75.7040 282° West 174 200 270 Level FlightAware ADS-B
Fri 04:18:31 PM 43.0550 -75.7210 279° West 174 200 275 Level FlightAware ADS-B
Fri 04:18:48 PM 43.0590 -75.7430 284° West 173 199 284 Level FlightAware ADS-B
Fri 04:19:10 PM 43.0620 -75.7670 280° West 172 198 293 Level FlightAware ADS-B
Fri 04:19:30 PM 43.0650 -75.7890 281° West 170 196 305 Level FlightAware ADS-B
Fri 04:19:50 PM 43.0670 -75.8090 278° West 168 193 317 Level FlightAware ADS-B
Fri 04:20:02 PM 43.0680 -75.8220 276° West 166 191 330 Level FlightAware ADS-B
Fri 04:20:26 PM 43.0700 -75.8470 276° West 168 193 338 Level FlightAware ADS-B
Fri 04:20:48 PM 43.0720 -75.8710 277° West 167 192 356 Level FlightAware ADS-B
Fri 04:21:09 PM 43.0730 -75.8930 274° West 169 194 374 Level FlightAware ADS-B
Fri 04:21:29 PM 43.0750 -75.9140 277° West 167 192 393 Level FlightAware ADS-B
Fri 04:21:49 PM 43.0770 -75.9350 277° West 167 192 413 Level FlightAware ADS-B
Fri 04:22:17 PM 43.0690 -75.9620 248° West 165 190 435 Level FlightAware ADS-B
Fri 04:22:39 PM 43.0600 -75.9810 237° Southwest 166 191 471 Level FlightAware ADS-B
Fri 04:22:59 PM 43.0520 -75.9990 239° Southwest 171 197 503 Level FlightAware ADS-B
Fri 04:23:23 PM 43.0410 -76.0220 237° Southwest 182 209 536 Level FlightAware ADS-B
Fri 04:23:27 PM 43.0400 -76.0270 255° West 183 211 583 Level FlightAware ADS-B
Fri 04:23:33 PM 43.0390 -76.0330 257° West 182 209 591 Level FlightAware ADS-B
Fri 04:23:55 PM 43.0360 -76.0580 261° West 168 193 604 Level FlightAware ADS-B
Fri 04:24:15 PM 43.0330 -76.0780 258° West 163 188 659 Level FlightAware ADS-B
Fri 04:24:27 PM 43.0320 -76.0890 263° West 159 183 717 Level FlightAware ADS-B
Fri 04:24:53 PM 43.0290 -76.1150 261° West 155 178 757 Level FlightAware ADS-B
Fri 04:25:05 PM 43.0280 -76.1270 264° West 151 174 862 Level FlightAware ADS-B
Fri 04:25:29 PM 43.0250 -76.1490 259° West 154 177 920 Level FlightAware ADS-B
Fri 04:25:47 PM 43.0230 -76.1660 261° West 155 178 1,066 Level FlightAware ADS-B
Fri 04:26:17 PM 43.0270 -76.1930 281° West 140 161 1,209 Level FlightAware ADS-B
Fri 04:26:37 PM 43.0310 -76.2100 288° West 131 151 1,558 Level FlightAware ADS-B
Fri 04:26:49 PM 43.0330 -76.2190 287° West 131 151 1,929 Level FlightAware ADS-B
Fri 04:27:13 PM 43.0360 -76.2380 282° West 119 137 2,250 Level FlightAware ADS-B
Fri 04:27:31 PM 43.0390 -76.2500 289° West 117 135 3,375 Level FlightAware ADS-B
Fri 04:28:01 PM 43.0550 -76.2430 18° North 140 161 2,700 2,654 Climbing FlightAware ADS-B
Fri 04:28:23 PM 43.0660 -76.2310 39° Northeast 139 160 2,300 -1,000 Descending FlightAware ADS-B
Fri 04:28:43 PM 43.0760 -76.2200 39° Northeast 138 159 2,000 -938 Descending FlightAware ADS-B
Fri 04:28:55 PM 43.0810 -76.2130 46° Northeast 137 158 1,800 -833 Descending FlightAware ADS-B
Fri 04:29:19 PM 43.0930 -76.1980 42° Northeast 127 146 1,500 -720 Descending FlightAware ADS-B
Fri 04:29:45 PM 43.1020 -76.1830 51° Northeast 116 133 1,200 -882 Descending FlightAware ADS-B
Fri 04:29:53 PM 43.1040 -76.1780 61° Northeast 114 131 1,000 -1,125 Descending FlightAware ADS-B
Fri 04:30:01 PM 43.1050 -76.1730 75° East 111 128 900 -857 Descending FlightAware ADS-B
Fri 04:30:21 PM 43.1070 -76.1600 78° East 103 119 600 -600 Descending FlightAware ADS-B
Fri 04:30:41 PM 43.1070 -76.1480 90° East 87 100 500 -353 Descending FlightAware ADS-B
Fri 04:30:55 PM 43.1080 -76.1400 80° East 84 97 400 -150 Descending FlightAware ADS-B
Fri 04:31:21 PM 43.1080 -76.1290 90° East 84 97 400  Level FlightAware ADS-B

Login

Don't have an account? Register now (free) for customized features, flight alerts, and more!